Kezdőlap
METAR-TAF:

METAR-TAF

Repülőterek :

Kolozsvári nemzetközi repülőtér

Kolozsvár, Románia

földrajzi szélesség: 46-47N, földrajzi hosszúság: 023-34E, magasság: 410 m

Jelenlegi meteorológiai megfigyelések

A jelentés 32 perccel ezelõtt készült, 09:30 UTC
Keleti szél 8 kt, kelet-északkeleti és délkeleti között változik
Hőmérséklet 25°C
Páratartalom 47%
Légköri nyomás 1022 hPa
Látótávolság 10 km, vagy több
Szórványos felhőzet 3300 lábon

METAR: LRCL 280930Z 10008KT 070V140 9999 SCT033 25/13 Q1022

Idő: 13:02 (10:02 UTC)


TAF: hiányzik

Meteorológiai megfigyelések és előrejelzések több, mint 4000 repülőtéren (METAR és TAF jelentéseket).

A térképen piros és sárga pontok jelzik az elérhető meteorológiai állomásokat.

Mozgassa az egeret a pont fölött, hogy megjelenjen az állomás neve.

Azután kattintson az időjárási megfigyelések és előrejelzések megtekintéséhez.

A térkép megváltoztatása: kattintson a fekete keresztel jelölt zöld gombra ráközelítéshez, a vonallal jelölt zöld gombra távolításhoz, vagy a zöld nyilakra a szomszédos térképek eléréséhez.


METAR-TAF: